Altona, Illinois
Current Conditions -  °F | °C
As of 4:15 AM on Thursday 23 Oct 2014 (Local Time) from KGBG Reporting Station
Clear Clear  
Wind Chill: 38°   Ceiling: Unl
Heat Index: 41°   Visibility: 10mi
Dew Point: 37°   Wind: 5mph
Humidity: 83%   Direction: 150°SSE
Pressure: 30.17"   Gusts: NA
Location:  41.11°N, 90.16°W
Report Text: KGBG 230915Z AUTO 15004KT 10SM CLR 05/03 A3017 RMK AO2 T00510025
Loading
Personal Weather Stations






























Interactive Weather Map
Tropical Storm Tracking
New forecast layout! Learn more

10-Day Weather Forecast

Advertisements
Track Severe Weather on mobile